sensor_id;sensor_type;location;lat;lon;timestamp;P1;durP1;ratioP1;P2;durP2;ratioP2
25023;SDS011;13033;50.936;5.334;2023-07-31T00:02:16;14.10;;;4.25;;
25023;SDS011;13033;50.936;5.334;2023-07-31T00:04:42;11.65;;;4.95;;
25023;SDS011;13033;50.936;5.334;2023-07-31T00:07:08;13.63;;;4.85;;
25023;SDS011;13033;50.936;5.334;2023-07-31T00:09:33;12.60;;;4.53;;
25023;SDS011;13033;50.936;5.334;2023-07-31T00:11:59;20.65;;;5.45;;
25023;SDS011;13033;50.936;5.334;2023-07-31T00:14:25;18.02;;;5.03;;
25023;SDS011;13033;50.936;5.334;2023-07-31T00:16:50;14.95;;;5.18;;
25023;SDS011;13033;50.936;5.334;2023-07-31T00:19:16;12.82;;;4.60;;
25023;SDS011;13033;50.936;5.334;2023-07-31T00:21:41;15.05;;;5.00;;
25023;SDS011;13033;50.936;5.334;2023-07-31T00:24:07;14.27;;;4.82;;
25023;SDS011;13033;50.936;5.334;2023-07-31T00:26:33;14.65;;;4.97;;
25023;SDS011;13033;50.936;5.334;2023-07-31T00:28:58;15.10;;;4.85;;
25023;SDS011;13033;50.936;5.334;2023-07-31T00:31:24;16.33;;;5.55;;
25023;SDS011;13033;50.936;5.334;2023-07-31T00:33:49;11.63;;;4.43;;
25023;SDS011;13033;50.936;5.334;2023-07-31T00:36:15;20.60;;;5.57;;
25023;SDS011;13033;50.936;5.334;2023-07-31T00:38:42;13.43;;;5.10;;
25023;SDS011;13033;50.936;5.334;2023-07-31T00:41:08;15.07;;;5.22;;
25023;SDS011;13033;50.936;5.334;2023-07-31T00:43:34;19.55;;;5.93;;
25023;SDS011;13033;50.936;5.334;2023-07-31T00:45:59;18.52;;;5.68;;
25023;SDS011;13033;50.936;5.334;2023-07-31T00:48:25;16.48;;;5.70;;
25023;SDS011;13033;50.936;5.334;2023-07-31T00:50:51;17.48;;;5.30;;
25023;SDS011;13033;50.936;5.334;2023-07-31T00:53:17;13.82;;;4.82;;
25023;SDS011;13033;50.936;5.334;2023-07-31T00:55:43;13.77;;;5.15;;
25023;SDS011;13033;50.936;5.334;2023-07-31T00:58:09;18.05;;;5.13;;
25023;SDS011;13033;50.936;5.334;2023-07-31T01:00:35;13.32;;;5.18;;
25023;SDS011;13033;50.936;5.334;2023-07-31T01:03:01;17.77;;;5.00;;
25023;SDS011;13033;50.936;5.334;2023-07-31T01:05:41;15.85;;;4.85;;
25023;SDS011;13033;50.936;5.334;2023-07-31T01:11:14;14.45;;;4.50;;
25023;SDS011;13033;50.936;5.334;2023-07-31T01:13:44;17.77;;;5.57;;
25023;SDS011;13033;50.936;5.334;2023-07-31T01:16:10;11.80;;;4.88;;
25023;SDS011;13033;50.936;5.334;2023-07-31T01:18:36;13.32;;;5.32;;
25023;SDS011;13033;50.936;5.334;2023-07-31T01:21:33;12.50;;;5.18;;
25023;SDS011;13033;50.936;5.334;2023-07-31T01:26:29;10.80;;;4.82;;
25023;SDS011;13033;50.936;5.334;2023-07-31T01:29:10;13.88;;;5.20;;
25023;SDS011;13033;50.936;5.334;2023-07-31T01:31:55;15.82;;;5.18;;
25023;SDS011;13033;50.936;5.334;2023-07-31T01:34:23;13.63;;;5.00;;
25023;SDS011;13033;50.936;5.334;2023-07-31T01:36:51;14.18;;;5.18;;
25023;SDS011;13033;50.936;5.334;2023-07-31T01:39:16;14.20;;;4.80;;
25023;SDS011;13033;50.936;5.334;2023-07-31T01:41:45;16.15;;;5.30;;
25023;SDS011;13033;50.936;5.334;2023-07-31T01:44:11;12.65;;;5.30;;
25023;SDS011;13033;50.936;5.334;2023-07-31T01:46:37;14.77;;;4.68;;
25023;SDS011;13033;50.936;5.334;2023-07-31T01:49:02;12.82;;;5.07;;
25023;SDS011;13033;50.936;5.334;2023-07-31T01:51:30;13.27;;;4.93;;
25023;SDS011;13033;50.936;5.334;2023-07-31T01:53:59;13.38;;;5.10;;
25023;SDS011;13033;50.936;5.334;2023-07-31T01:56:25;14.43;;;5.45;;
25023;SDS011;13033;50.936;5.334;2023-07-31T01:58:50;15.60;;;5.28;;
25023;SDS011;13033;50.936;5.334;2023-07-31T02:01:16;15.05;;;5.13;;
25023;SDS011;13033;50.936;5.334;2023-07-31T02:03:42;13.65;;;5.47;;
25023;SDS011;13033;50.936;5.334;2023-07-31T02:06:07;16.83;;;5.18;;
25023;SDS011;13033;50.936;5.334;2023-07-31T02:08:33;14.02;;;5.60;;
25023;SDS011;13033;50.936;5.334;2023-07-31T02:10:58;14.25;;;6.38;;
25023;SDS011;13033;50.936;5.334;2023-07-31T02:13:24;13.35;;;4.80;;
25023;SDS011;13033;50.936;5.334;2023-07-31T02:15:50;14.63;;;6.00;;
25023;SDS011;13033;50.936;5.334;2023-07-31T02:18:16;14.38;;;5.63;;
25023;SDS011;13033;50.936;5.334;2023-07-31T02:20:41;13.88;;;5.10;;
25023;SDS011;13033;50.936;5.334;2023-07-31T02:23:07;12.60;;;5.10;;
25023;SDS011;13033;50.936;5.334;2023-07-31T02:25:32;11.63;;;5.57;;
25023;SDS011;13033;50.936;5.334;2023-07-31T02:27:58;14.63;;;5.13;;
25023;SDS011;13033;50.936;5.334;2023-07-31T02:30:24;13.13;;;5.43;;
25023;SDS011;13033;50.936;5.334;2023-07-31T02:32:49;11.82;;;5.30;;
25023;SDS011;13033;50.936;5.334;2023-07-31T02:35:15;14.77;;;5.85;;
25023;SDS011;13033;50.936;5.334;2023-07-31T02:37:41;14.70;;;5.90;;
25023;SDS011;13033;50.936;5.334;2023-07-31T02:40:07;11.63;;;5.35;;
25023;SDS011;13033;50.936;5.334;2023-07-31T02:42:33;13.13;;;6.20;;
25023;SDS011;13033;50.936;5.334;2023-07-31T02:44:59;15.20;;;5.40;;
25023;SDS011;13033;50.936;5.334;2023-07-31T02:47:24;14.88;;;5.97;;
25023;SDS011;13033;50.936;5.334;2023-07-31T02:49:50;16.80;;;5.65;;
25023;SDS011;13033;50.936;5.334;2023-07-31T02:52:16;11.55;;;5.18;;
25023;SDS011;13033;50.936;5.334;2023-07-31T02:54:41;15.52;;;5.82;;
25023;SDS011;13033;50.936;5.334;2023-07-31T02:57:07;13.00;;;4.97;;
25023;SDS011;13033;50.936;5.334;2023-07-31T02:59:32;15.10;;;5.97;;
25023;SDS011;13033;50.936;5.334;2023-07-31T03:01:58;13.68;;;5.88;;
25023;SDS011;13033;50.936;5.334;2023-07-31T03:04:24;14.00;;;5.97;;
25023;SDS011;13033;50.936;5.334;2023-07-31T03:06:49;18.30;;;5.68;;
25023;SDS011;13033;50.936;5.334;2023-07-31T03:09:15;10.63;;;5.22;;
25023;SDS011;13033;50.936;5.334;2023-07-31T03:11:40;13.85;;;5.85;;
25023;SDS011;13033;50.936;5.334;2023-07-31T03:14:06;13.20;;;5.47;;
25023;SDS011;13033;50.936;5.334;2023-07-31T03:16:32;11.65;;;6.07;;
25023;SDS011;13033;50.936;5.334;2023-07-31T03:18:57;14.05;;;6.45;;
25023;SDS011;13033;50.936;5.334;2023-07-31T03:21:23;15.88;;;6.30;;
25023;SDS011;13033;50.936;5.334;2023-07-31T03:23:48;9.60;;;5.47;;
25023;SDS011;13033;50.936;5.334;2023-07-31T03:26:14;14.73;;;5.80;;
25023;SDS011;13033;50.936;5.334;2023-07-31T03:28:40;12.13;;;5.97;;
25023;SDS011;13033;50.936;5.334;2023-07-31T03:31:05;11.57;;;5.60;;
25023;SDS011;13033;50.936;5.334;2023-07-31T03:33:33;10.57;;;5.30;;
25023;SDS011;13033;50.936;5.334;2023-07-31T03:35:58;10.80;;;4.97;;
25023;SDS011;13033;50.936;5.334;2023-07-31T03:38:24;12.07;;;5.63;;
25023;SDS011;13033;50.936;5.334;2023-07-31T03:40:50;12.35;;;6.00;;
25023;SDS011;13033;50.936;5.334;2023-07-31T03:43:15;8.45;;;5.18;;
25023;SDS011;13033;50.936;5.334;2023-07-31T03:45:41;12.52;;;5.35;;
25023;SDS011;13033;50.936;5.334;2023-07-31T03:48:07;9.02;;;4.95;;
25023;SDS011;13033;50.936;5.334;2023-07-31T03:50:33;10.10;;;5.20;;
25023;SDS011;13033;50.936;5.334;2023-07-31T03:52:58;12.68;;;5.25;;
25023;SDS011;13033;50.936;5.334;2023-07-31T03:55:24;8.15;;;5.35;;
25023;SDS011;13033;50.936;5.334;2023-07-31T03:57:49;9.68;;;5.07;;
25023;SDS011;13033;50.936;5.334;2023-07-31T04:00:15;9.25;;;4.78;;
25023;SDS011;13033;50.936;5.334;2023-07-31T04:02:41;11.50;;;5.18;;
25023;SDS011;13033;50.936;5.334;2023-07-31T04:05:07;12.13;;;4.88;;
25023;SDS011;13033;50.936;5.334;2023-07-31T04:07:32;10.40;;;5.03;;
25023;SDS011;13033;50.936;5.334;2023-07-31T04:09:59;9.32;;;4.90;;
25023;SDS011;13033;50.936;5.334;2023-07-31T04:12:25;10.63;;;4.78;;
25023;SDS011;13033;50.936;5.334;2023-07-31T04:14:50;8.77;;;4.78;;
25023;SDS011;13033;50.936;5.334;2023-07-31T04:17:17;10.50;;;4.88;;
25023;SDS011;13033;50.936;5.334;2023-07-31T04:19:43;10.23;;;4.53;;
25023;SDS011;13033;50.936;5.334;2023-07-31T04:22:09;10.93;;;4.57;;
25023;SDS011;13033;50.936;5.334;2023-07-31T04:24:34;9.35;;;4.47;;
25023;SDS011;13033;50.936;5.334;2023-07-31T04:27:00;9.45;;;4.50;;
25023;SDS011;13033;50.936;5.334;2023-07-31T04:29:26;8.73;;;4.45;;
25023;SDS011;13033;50.936;5.334;2023-07-31T04:31:51;8.65;;;4.22;;
25023;SDS011;13033;50.936;5.334;2023-07-31T04:34:17;13.82;;;4.88;;
25023;SDS011;13033;50.936;5.334;2023-07-31T04:36:43;9.20;;;4.97;;
25023;SDS011;13033;50.936;5.334;2023-07-31T04:39:08;10.18;;;4.43;;
25023;SDS011;13033;50.936;5.334;2023-07-31T04:41:34;7.82;;;4.50;;
25023;SDS011;13033;50.936;5.334;2023-07-31T04:43:59;9.70;;;4.38;;
25023;SDS011;13033;50.936;5.334;2023-07-31T04:46:25;11.05;;;4.40;;
25023;SDS011;13033;50.936;5.334;2023-07-31T04:49:05;9.20;;;4.38;;
25023;SDS011;13033;50.936;5.334;2023-07-31T04:51:31;9.32;;;4.13;;
25023;SDS011;13033;50.936;5.334;2023-07-31T04:53:56;7.57;;;4.63;;
25023;SDS011;13033;50.936;5.334;2023-07-31T04:56:22;9.52;;;4.65;;
25023;SDS011;13033;50.936;5.334;2023-07-31T04:58:47;10.25;;;5.05;;
25023;SDS011;13033;50.936;5.334;2023-07-31T05:01:13;11.02;;;4.50;;
25023;SDS011;13033;50.936;5.334;2023-07-31T05:03:39;9.68;;;4.93;;
25023;SDS011;13033;50.936;5.334;2023-07-31T05:06:04;9.65;;;5.00;;
25023;SDS011;13033;50.936;5.334;2023-07-31T05:08:30;8.65;;;4.82;;
25023;SDS011;13033;50.936;5.334;2023-07-31T05:10:55;12.10;;;4.75;;
25023;SDS011;13033;50.936;5.334;2023-07-31T05:13:21;10.85;;;4.80;;
25023;SDS011;13033;50.936;5.334;2023-07-31T05:15:47;11.02;;;5.07;;
25023;SDS011;13033;50.936;5.334;2023-07-31T05:18:14;10.10;;;4.82;;
25023;SDS011;13033;50.936;5.334;2023-07-31T05:20:40;8.48;;;4.15;;
25023;SDS011;13033;50.936;5.334;2023-07-31T05:23:06;8.75;;;4.32;;
25023;SDS011;13033;50.936;5.334;2023-07-31T05:25:32;11.40;;;4.88;;
25023;SDS011;13033;50.936;5.334;2023-07-31T05:27:57;11.60;;;4.95;;
25023;SDS011;13033;50.936;5.334;2023-07-31T05:30:23;12.38;;;5.43;;
25023;SDS011;13033;50.936;5.334;2023-07-31T05:32:48;9.95;;;4.75;;
25023;SDS011;13033;50.936;5.334;2023-07-31T05:35:14;9.25;;;5.00;;
25023;SDS011;13033;50.936;5.334;2023-07-31T05:37:40;10.55;;;4.80;;
25023;SDS011;13033;50.936;5.334;2023-07-31T05:40:06;10.95;;;4.18;;
25023;SDS011;13033;50.936;5.334;2023-07-31T05:42:32;10.98;;;4.80;;
25023;SDS011;13033;50.936;5.334;2023-07-31T05:44:57;8.18;;;4.07;;
25023;SDS011;13033;50.936;5.334;2023-07-31T05:47:23;9.50;;;4.78;;
25023;SDS011;13033;50.936;5.334;2023-07-31T05:49:49;12.38;;;4.88;;
25023;SDS011;13033;50.936;5.334;2023-07-31T05:52:17;10.73;;;4.88;;
25023;SDS011;13033;50.936;5.334;2023-07-31T05:54:43;11.75;;;4.75;;
25023;SDS011;13033;50.936;5.334;2023-07-31T05:57:10;8.77;;;4.50;;
25023;SDS011;13033;50.936;5.334;2023-07-31T05:59:36;9.13;;;4.13;;
25023;SDS011;13033;50.936;5.334;2023-07-31T06:02:02;9.88;;;4.30;;
25023;SDS011;13033;50.936;5.334;2023-07-31T06:04:27;8.18;;;4.30;;
25023;SDS011;13033;50.936;5.334;2023-07-31T06:06:53;9.57;;;4.15;;
25023;SDS011;13033;50.936;5.334;2023-07-31T06:09:19;10.23;;;4.15;;
25023;SDS011;13033;50.936;5.334;2023-07-31T06:11:45;9.73;;;4.32;;
25023;SDS011;13033;50.936;5.334;2023-07-31T06:14:12;9.07;;;4.30;;
25023;SDS011;13033;50.936;5.334;2023-07-31T06:16:38;9.80;;;4.18;;
25023;SDS011;13033;50.936;5.334;2023-07-31T06:19:03;9.80;;;4.05;;
25023;SDS011;13033;50.936;5.334;2023-07-31T06:21:29;7.60;;;4.07;;
25023;SDS011;13033;50.936;5.334;2023-07-31T06:23:56;10.73;;;4.30;;
25023;SDS011;13033;50.936;5.334;2023-07-31T06:26:21;9.32;;;4.38;;
25023;SDS011;13033;50.936;5.334;2023-07-31T06:28:47;10.82;;;4.32;;
25023;SDS011;13033;50.936;5.334;2023-07-31T06:31:12;10.60;;;4.72;;
25023;SDS011;13033;50.936;5.334;2023-07-31T06:33:38;8.35;;;4.30;;
25023;SDS011;13033;50.936;5.334;2023-07-31T06:36:04;7.60;;;4.30;;
25023;SDS011;13033;50.936;5.334;2023-07-31T06:38:29;8.73;;;4.35;;
25023;SDS011;13033;50.936;5.334;2023-07-31T06:40:55;10.30;;;4.60;;
25023;SDS011;13033;50.936;5.334;2023-07-31T06:43:21;10.15;;;4.68;;
25023;SDS011;13033;50.936;5.334;2023-07-31T06:45:46;9.13;;;4.47;;
25023;SDS011;13033;50.936;5.334;2023-07-31T06:48:15;11.25;;;5.15;;
25023;SDS011;13033;50.936;5.334;2023-07-31T06:50:41;9.65;;;4.78;;
25023;SDS011;13033;50.936;5.334;2023-07-31T06:53:06;9.27;;;4.45;;
25023;SDS011;13033;50.936;5.334;2023-07-31T06:55:32;10.80;;;4.85;;
25023;SDS011;13033;50.936;5.334;2023-07-31T06:57:58;9.32;;;4.55;;
25023;SDS011;13033;50.936;5.334;2023-07-31T07:00:23;10.98;;;4.45;;
25023;SDS011;13033;50.936;5.334;2023-07-31T07:02:49;11.23;;;4.55;;
25023;SDS011;13033;50.936;5.334;2023-07-31T07:05:15;12.05;;;4.40;;
25023;SDS011;13033;50.936;5.334;2023-07-31T07:07:42;9.13;;;4.30;;
25023;SDS011;13033;50.936;5.334;2023-07-31T07:10:08;11.40;;;3.83;;
25023;SDS011;13033;50.936;5.334;2023-07-31T07:12:35;10.13;;;4.35;;
25023;SDS011;13033;50.936;5.334;2023-07-31T07:15:01;6.82;;;3.60;;
25023;SDS011;13033;50.936;5.334;2023-07-31T07:17:28;6.80;;;4.07;;
25023;SDS011;13033;50.936;5.334;2023-07-31T07:19:57;10.05;;;4.40;;
25023;SDS011;13033;50.936;5.334;2023-07-31T07:22:23;10.23;;;4.32;;
25023;SDS011;13033;50.936;5.334;2023-07-31T07:24:49;11.32;;;4.35;;
25023;SDS011;13033;50.936;5.334;2023-07-31T07:27:15;8.52;;;4.28;;
25023;SDS011;13033;50.936;5.334;2023-07-31T07:29:41;7.68;;;4.10;;
25023;SDS011;13033;50.936;5.334;2023-07-31T07:32:07;8.27;;;3.92;;
25023;SDS011;13033;50.936;5.334;2023-07-31T07:34:32;6.53;;;3.80;;
25023;SDS011;13033;50.936;5.334;2023-07-31T07:36:58;8.90;;;4.10;;
25023;SDS011;13033;50.936;5.334;2023-07-31T07:39:24;9.70;;;4.63;;
25023;SDS011;13033;50.936;5.334;2023-07-31T07:41:50;8.82;;;4.13;;
25023;SDS011;13033;50.936;5.334;2023-07-31T07:44:15;11.00;;;4.10;;
25023;SDS011;13033;50.936;5.334;2023-07-31T07:46:41;10.10;;;3.60;;
25023;SDS011;13033;50.936;5.334;2023-07-31T07:49:07;9.13;;;4.45;;
25023;SDS011;13033;50.936;5.334;2023-07-31T07:51:32;7.28;;;4.15;;
25023;SDS011;13033;50.936;5.334;2023-07-31T07:53:58;7.32;;;3.70;;
25023;SDS011;13033;50.936;5.334;2023-07-31T07:56:27;10.05;;;4.22;;
25023;SDS011;13033;50.936;5.334;2023-07-31T07:58:53;8.85;;;4.20;;
25023;SDS011;13033;50.936;5.334;2023-07-31T08:01:19;8.57;;;3.65;;
25023;SDS011;13033;50.936;5.334;2023-07-31T08:03:45;7.60;;;4.00;;
25023;SDS011;13033;50.936;5.334;2023-07-31T08:06:11;7.53;;;3.78;;
25023;SDS011;13033;50.936;5.334;2023-07-31T08:08:37;8.35;;;3.97;;
25023;SDS011;13033;50.936;5.334;2023-07-31T08:11:03;8.90;;;4.10;;
25023;SDS011;13033;50.936;5.334;2023-07-31T08:13:28;9.55;;;3.97;;
25023;SDS011;13033;50.936;5.334;2023-07-31T08:15:54;8.23;;;3.67;;
25023;SDS011;13033;50.936;5.334;2023-07-31T08:18:20;11.00;;;3.53;;
25023;SDS011;13033;50.936;5.334;2023-07-31T08:20:46;8.50;;;4.20;;
25023;SDS011;13033;50.936;5.334;2023-07-31T08:23:12;8.80;;;4.00;;
25023;SDS011;13033;50.936;5.334;2023-07-31T08:25:38;7.13;;;3.78;;
25023;SDS011;13033;50.936;5.334;2023-07-31T08:28:04;7.93;;;3.50;;
25023;SDS011;13033;50.936;5.334;2023-07-31T08:30:30;7.57;;;4.03;;
25023;SDS011;13033;50.936;5.334;2023-07-31T08:32:58;7.88;;;3.72;;
25023;SDS011;13033;50.936;5.334;2023-07-31T08:35:24;7.63;;;3.70;;
25023;SDS011;13033;50.936;5.334;2023-07-31T08:37:50;7.95;;;4.07;;
25023;SDS011;13033;50.936;5.334;2023-07-31T08:40:16;8.35;;;4.53;;
25023;SDS011;13033;50.936;5.334;2023-07-31T08:42:47;9.80;;;4.65;;
25023;SDS011;13033;50.936;5.334;2023-07-31T08:45:15;7.95;;;4.20;;
25023;SDS011;13033;50.936;5.334;2023-07-31T08:47:44;9.07;;;4.03;;
25023;SDS011;13033;50.936;5.334;2023-07-31T08:50:14;7.30;;;4.07;;
25023;SDS011;13033;50.936;5.334;2023-07-31T08:52:42;7.85;;;3.75;;
25023;SDS011;13033;50.936;5.334;2023-07-31T08:55:08;9.05;;;4.18;;
25023;SDS011;13033;50.936;5.334;2023-07-31T08:57:34;9.48;;;4.10;;
25023;SDS011;13033;50.936;5.334;2023-07-31T09:00:02;10.95;;;4.10;;
25023;SDS011;13033;50.936;5.334;2023-07-31T09:02:31;8.27;;;4.05;;
25023;SDS011;13033;50.936;5.334;2023-07-31T09:05:06;9.75;;;4.10;;
25023;SDS011;13033;50.936;5.334;2023-07-31T09:07:33;7.55;;;3.50;;
25023;SDS011;13033;50.936;5.334;2023-07-31T09:10:01;7.80;;;3.65;;
25023;SDS011;13033;50.936;5.334;2023-07-31T09:12:27;7.28;;;3.90;;
25023;SDS011;13033;50.936;5.334;2023-07-31T09:14:53;6.45;;;3.35;;
25023;SDS011;13033;50.936;5.334;2023-07-31T09:17:32;8.10;;;3.65;;
25023;SDS011;13033;50.936;5.334;2023-07-31T09:20:12;8.50;;;3.28;;
25023;SDS011;13033;50.936;5.334;2023-07-31T09:22:39;5.38;;;2.97;;
25023;SDS011;13033;50.936;5.334;2023-07-31T09:30:12;7.35;;;3.08;;
25023;SDS011;13033;50.936;5.334;2023-07-31T09:32:38;4.60;;;3.10;;
25023;SDS011;13033;50.936;5.334;2023-07-31T09:35:13;6.30;;;2.92;;
25023;SDS011;13033;50.936;5.334;2023-07-31T09:37:47;4.05;;;2.50;;
25023;SDS011;13033;50.936;5.334;2023-07-31T09:40:30;6.35;;;2.50;;
25023;SDS011;13033;50.936;5.334;2023-07-31T09:43:00;3.72;;;2.33;;
25023;SDS011;13033;50.936;5.334;2023-07-31T09:45:30;2.78;;;1.98;;
25023;SDS011;13033;50.936;5.334;2023-07-31T09:48:01;3.45;;;2.15;;
25023;SDS011;13033;50.936;5.334;2023-07-31T09:50:28;2.58;;;1.80;;
25023;SDS011;13033;50.936;5.334;2023-07-31T09:52:55;4.57;;;2.05;;
25023;SDS011;13033;50.936;5.334;2023-07-31T09:55:20;4.28;;;2.40;;
25023;SDS011;13033;50.936;5.334;2023-07-31T09:57:47;2.95;;;1.70;;
25023;SDS011;13033;50.936;5.334;2023-07-31T10:00:15;2.88;;;1.77;;
25023;SDS011;13033;50.936;5.334;2023-07-31T10:02:43;4.25;;;2.05;;
25023;SDS011;13033;50.936;5.334;2023-07-31T10:05:12;3.25;;;1.95;;
25023;SDS011;13033;50.936;5.334;2023-07-31T10:07:40;4.07;;;2.15;;
25023;SDS011;13033;50.936;5.334;2023-07-31T10:10:08;3.95;;;2.15;;
25023;SDS011;13033;50.936;5.334;2023-07-31T10:12:35;5.93;;;2.38;;
25023;SDS011;13033;50.936;5.334;2023-07-31T10:15:01;3.95;;;2.42;;
25023;SDS011;13033;50.936;5.334;2023-07-31T10:17:29;4.57;;;2.28;;
25023;SDS011;13033;50.936;5.334;2023-07-31T10:19:56;4.88;;;2.72;;
25023;SDS011;13033;50.936;5.334;2023-07-31T10:22:28;3.97;;;2.50;;
25023;SDS011;13033;50.936;5.334;2023-07-31T10:24:55;5.25;;;3.05;;
25023;SDS011;13033;50.936;5.334;2023-07-31T10:27:24;6.15;;;3.40;;
25023;SDS011;13033;50.936;5.334;2023-07-31T10:29:50;8.00;;;3.67;;
25023;SDS011;13033;50.936;5.334;2023-07-31T10:32:18;7.43;;;3.00;;
25023;SDS011;13033;50.936;5.334;2023-07-31T10:34:45;8.45;;;3.47;;
25023;SDS011;13033;50.936;5.334;2023-07-31T10:37:21;5.57;;;3.22;;
25023;SDS011;13033;50.936;5.334;2023-07-31T10:40:01;5.75;;;3.42;;
25023;SDS011;13033;50.936;5.334;2023-07-31T10:42:31;4.68;;;3.33;;
25023;SDS011;13033;50.936;5.334;2023-07-31T10:45:00;6.38;;;3.70;;
25023;SDS011;13033;50.936;5.334;2023-07-31T10:47:27;9.27;;;4.40;;
25023;SDS011;13033;50.936;5.334;2023-07-31T10:50:02;8.38;;;3.92;;
25023;SDS011;13033;50.936;5.334;2023-07-31T10:55:24;8.98;;;4.30;;
25023;SDS011;13033;50.936;5.334;2023-07-31T10:57:54;6.65;;;4.30;;
25023;SDS011;13033;50.936;5.334;2023-07-31T11:00:21;9.70;;;4.10;;
25023;SDS011;13033;50.936;5.334;2023-07-31T11:08:35;8.25;;;4.50;;
25023;SDS011;13033;50.936;5.334;2023-07-31T11:11:07;9.30;;;4.70;;
25023;SDS011;13033;50.936;5.334;2023-07-31T11:13:39;8.20;;;4.55;;
25023;SDS011;13033;50.936;5.334;2023-07-31T11:16:10;7.85;;;4.18;;
25023;SDS011;13033;50.936;5.334;2023-07-31T11:18:38;8.02;;;4.70;;
25023;SDS011;13033;50.936;5.334;2023-07-31T11:21:05;9.32;;;4.70;;
25023;SDS011;13033;50.936;5.334;2023-07-31T11:23:31;8.65;;;4.47;;
25023;SDS011;13033;50.936;5.334;2023-07-31T11:26:00;8.52;;;4.43;;
25023;SDS011;13033;50.936;5.334;2023-07-31T11:28:30;8.60;;;4.68;;
25023;SDS011;13033;50.936;5.334;2023-07-31T11:31:00;11.05;;;4.78;;
25023;SDS011;13033;50.936;5.334;2023-07-31T11:33:27;10.30;;;4.82;;
25023;SDS011;13033;50.936;5.334;2023-07-31T11:35:52;8.65;;;4.47;;
25023;SDS011;13033;50.936;5.334;2023-07-31T11:38:22;8.43;;;4.65;;
25023;SDS011;13033;50.936;5.334;2023-07-31T11:40:49;6.47;;;4.22;;
25023;SDS011;13033;50.936;5.334;2023-07-31T11:43:15;10.52;;;4.35;;
25023;SDS011;13033;50.936;5.334;2023-07-31T11:45:47;9.32;;;4.28;;
25023;SDS011;13033;50.936;5.334;2023-07-31T11:48:23;10.13;;;4.55;;
25023;SDS011;13033;50.936;5.334;2023-07-31T11:50:56;7.50;;;4.60;;
25023;SDS011;13033;50.936;5.334;2023-07-31T11:53:25;9.57;;;4.00;;
25023;SDS011;13033;50.936;5.334;2023-07-31T11:56:03;10.10;;;4.32;;
25023;SDS011;13033;50.936;5.334;2023-07-31T11:58:30;6.88;;;4.63;;
25023;SDS011;13033;50.936;5.334;2023-07-31T12:00:57;8.30;;;4.30;;
25023;SDS011;13033;50.936;5.334;2023-07-31T12:03:24;11.18;;;4.68;;
25023;SDS011;13033;50.936;5.334;2023-07-31T12:05:50;13.20;;;4.80;;
25023;SDS011;13033;50.936;5.334;2023-07-31T12:08:18;7.70;;;4.20;;
25023;SDS011;13033;50.936;5.334;2023-07-31T12:10:46;7.90;;;4.65;;
25023;SDS011;13033;50.936;5.334;2023-07-31T12:13:24;10.13;;;4.07;;
25023;SDS011;13033;50.936;5.334;2023-07-31T12:15:58;6.53;;;3.83;;
25023;SDS011;13033;50.936;5.334;2023-07-31T12:18:25;7.80;;;4.13;;
25023;SDS011;13033;50.936;5.334;2023-07-31T12:20:55;9.93;;;4.50;;
25023;SDS011;13033;50.936;5.334;2023-07-31T12:23:32;7.60;;;4.10;;
25023;SDS011;13033;50.936;5.334;2023-07-31T12:28:35;7.97;;;4.35;;
25023;SDS011;13033;50.936;5.334;2023-07-31T12:31:03;9.07;;;3.78;;
25023;SDS011;13033;50.936;5.334;2023-07-31T12:33:33;8.40;;;4.20;;
25023;SDS011;13033;50.936;5.334;2023-07-31T12:36:04;9.95;;;4.45;;
25023;SDS011;13033;50.936;5.334;2023-07-31T12:38:34;9.68;;;4.22;;
25023;SDS011;13033;50.936;5.334;2023-07-31T12:40:59;10.55;;;4.30;;
25023;SDS011;13033;50.936;5.334;2023-07-31T12:43:25;10.27;;;4.32;;
25023;SDS011;13033;50.936;5.334;2023-07-31T12:45:51;6.88;;;4.03;;
25023;SDS011;13033;50.936;5.334;2023-07-31T12:48:16;5.97;;;3.97;;
25023;SDS011;13033;50.936;5.334;2023-07-31T12:50:42;8.45;;;4.13;;
25023;SDS011;13033;50.936;5.334;2023-07-31T12:53:08;8.70;;;3.97;;
25023;SDS011;13033;50.936;5.334;2023-07-31T12:55:34;9.65;;;4.43;;
25023;SDS011;13033;50.936;5.334;2023-07-31T12:58:01;8.25;;;4.50;;
25023;SDS011;13033;50.936;5.334;2023-07-31T13:00:28;8.70;;;4.35;;
25023;SDS011;13033;50.936;5.334;2023-07-31T13:02:54;8.18;;;4.25;;
25023;SDS011;13033;50.936;5.334;2023-07-31T13:05:19;6.43;;;4.38;;
25023;SDS011;13033;50.936;5.334;2023-07-31T13:07:46;7.07;;;4.00;;
25023;SDS011;13033;50.936;5.334;2023-07-31T13:10:12;14.00;;;4.43;;
25023;SDS011;13033;50.936;5.334;2023-07-31T13:12:38;7.47;;;4.60;;
25023;SDS011;13033;50.936;5.334;2023-07-31T13:15:04;10.00;;;5.18;;
25023;SDS011;13033;50.936;5.334;2023-07-31T13:17:31;11.52;;;5.00;;
25023;SDS011;13033;50.936;5.334;2023-07-31T13:19:57;12.95;;;4.90;;
25023;SDS011;13033;50.936;5.334;2023-07-31T13:22:22;8.30;;;4.63;;
25023;SDS011;13033;50.936;5.334;2023-07-31T13:24:48;8.50;;;4.88;;
25023;SDS011;13033;50.936;5.334;2023-07-31T13:27:14;9.18;;;4.90;;
25023;SDS011;13033;50.936;5.334;2023-07-31T13:29:45;10.13;;;5.22;;
25023;SDS011;13033;50.936;5.334;2023-07-31T13:32:10;9.10;;;5.03;;
25023;SDS011;13033;50.936;5.334;2023-07-31T13:34:36;9.32;;;5.15;;
25023;SDS011;13033;50.936;5.334;2023-07-31T13:37:02;9.40;;;4.60;;
25023;SDS011;13033;50.936;5.334;2023-07-31T13:39:28;9.45;;;5.00;;
25023;SDS011;13033;50.936;5.334;2023-07-31T13:41:54;8.85;;;4.75;;
25023;SDS011;13033;50.936;5.334;2023-07-31T13:44:20;9.73;;;5.30;;
25023;SDS011;13033;50.936;5.334;2023-07-31T13:46:46;10.18;;;5.28;;
25023;SDS011;13033;50.936;5.334;2023-07-31T13:49:11;13.40;;;4.70;;
25023;SDS011;13033;50.936;5.334;2023-07-31T13:51:37;7.78;;;4.40;;
25023;SDS011;13033;50.936;5.334;2023-07-31T13:54:04;11.90;;;4.55;;
25023;SDS011;13033;50.936;5.334;2023-07-31T13:56:31;10.40;;;5.10;;
25023;SDS011;13033;50.936;5.334;2023-07-31T13:58:56;9.85;;;4.68;;
25023;SDS011;13033;50.936;5.334;2023-07-31T14:01:22;9.48;;;5.03;;
25023;SDS011;13033;50.936;5.334;2023-07-31T14:03:49;11.02;;;4.65;;
25023;SDS011;13033;50.936;5.334;2023-07-31T14:06:14;9.02;;;4.63;;
25023;SDS011;13033;50.936;5.334;2023-07-31T14:08:40;10.93;;;4.90;;
25023;SDS011;13033;50.936;5.334;2023-07-31T14:11:06;10.07;;;4.82;;
25023;SDS011;13033;50.936;5.334;2023-07-31T14:13:31;11.07;;;4.95;;
25023;SDS011;13033;50.936;5.334;2023-07-31T14:15:57;8.98;;;4.63;;
25023;SDS011;13033;50.936;5.334;2023-07-31T14:18:23;12.02;;;5.13;;
25023;SDS011;13033;50.936;5.334;2023-07-31T14:20:48;10.40;;;4.88;;
25023;SDS011;13033;50.936;5.334;2023-07-31T14:23:14;13.50;;;4.10;;
25023;SDS011;13033;50.936;5.334;2023-07-31T14:25:40;8.68;;;4.13;;
25023;SDS011;13033;50.936;5.334;2023-07-31T14:28:06;10.48;;;4.18;;
25023;SDS011;13033;50.936;5.334;2023-07-31T14:30:32;8.60;;;4.20;;
25023;SDS011;13033;50.936;5.334;2023-07-31T14:32:57;7.53;;;4.50;;
25023;SDS011;13033;50.936;5.334;2023-07-31T14:35:25;8.20;;;4.57;;
25023;SDS011;13033;50.936;5.334;2023-07-31T14:37:51;9.27;;;4.38;;
25023;SDS011;13033;50.936;5.334;2023-07-31T14:40:16;7.20;;;4.03;;
25023;SDS011;13033;50.936;5.334;2023-07-31T14:42:42;6.80;;;3.58;;
25023;SDS011;13033;50.936;5.334;2023-07-31T14:45:08;7.50;;;3.17;;
25023;SDS011;13033;50.936;5.334;2023-07-31T14:47:35;6.93;;;3.42;;
25023;SDS011;13033;50.936;5.334;2023-07-31T14:50:00;6.40;;;3.20;;
25023;SDS011;13033;50.936;5.334;2023-07-31T14:52:27;4.43;;;3.03;;
25023;SDS011;13033;50.936;5.334;2023-07-31T14:54:53;7.47;;;3.35;;
25023;SDS011;13033;50.936;5.334;2023-07-31T14:57:19;5.63;;;3.30;;
25023;SDS011;13033;50.936;5.334;2023-07-31T14:59:45;5.95;;;2.85;;
25023;SDS011;13033;50.936;5.334;2023-07-31T15:02:11;5.60;;;2.67;;